createdAt,value
2016-11-29T00:00:34.746Z,1028.05
2016-11-29T00:01:34.762Z,1028.07
2016-11-29T00:02:34.775Z,1028.09
2016-11-29T00:03:34.787Z,1028.1
2016-11-29T00:04:34.800Z,1028.09
2016-11-29T00:05:34.816Z,1028.11
2016-11-29T00:06:34.830Z,1028.08
2016-11-29T00:07:34.844Z,1028.05
2016-11-29T00:08:34.856Z,1028.04
2016-11-29T00:09:34.868Z,1028.11
2016-11-29T00:10:34.883Z,1028.1
2016-11-29T00:11:34.896Z,1028.1
2016-11-29T00:13:34.924Z,1028.13
2016-11-29T00:14:34.936Z,1028.12
2016-11-29T00:15:34.948Z,1028.14
2016-11-29T00:16:34.962Z,1028.1
2016-11-29T00:17:34.977Z,1028.14
2016-11-29T00:18:34.989Z,1028.09
2016-11-29T00:19:35.004Z,1028.11
2016-11-29T00:20:35.018Z,1028.12
2016-11-29T00:21:35.029Z,1028.15
2016-11-29T00:22:35.042Z,1028.16
2016-11-29T00:23:35.106Z,1028.12
2016-11-29T00:24:35.070Z,1028.15
2016-11-29T00:25:35.085Z,1028.13
2016-11-29T00:26:35.096Z,1028.11
2016-11-29T00:27:35.112Z,1028.1
2016-11-29T00:29:35.139Z,1028.09
2016-11-29T00:30:35.152Z,1028.07
2016-11-29T00:31:35.165Z,1028.1
2016-11-29T00:32:35.179Z,1028.1
2016-11-29T00:33:35.190Z,1028.13
2016-11-29T00:34:35.203Z,1028.18
2016-11-29T00:35:35.220Z,1028.15
2016-11-29T00:36:35.231Z,1028.13
2016-11-29T00:37:35.259Z,1028.2
2016-11-29T00:38:35.257Z,1028.15
2016-11-29T00:39:35.272Z,1028.19
2016-11-29T00:40:35.286Z,1028.21
2016-11-29T00:41:35.299Z,1028.21
2016-11-29T00:42:35.310Z,1028.24
2016-11-29T00:43:35.326Z,1028.23
2016-11-29T00:45:35.350Z,1028.18
2016-11-29T00:46:35.364Z,1028.15
2016-11-29T00:47:35.382Z,1028.17
2016-11-29T00:48:35.392Z,1028.21
2016-11-29T00:49:35.406Z,1028.19
2016-11-29T00:50:35.418Z,1028.21
2016-11-29T00:51:35.432Z,1028.22
2016-11-29T00:52:35.444Z,1028.25
2016-11-29T00:53:35.457Z,1028.19
2016-11-29T00:54:35.473Z,1028.23
2016-11-29T00:55:35.485Z,1028.26
2016-11-29T00:56:35.499Z,1028.24
2016-11-29T00:57:35.513Z,1028.21
2016-11-29T00:58:35.524Z,1028.2
2016-11-29T00:59:35.539Z,1028.18
2016-11-29T01:01:35.564Z,1028.17
2016-11-29T01:02:35.578Z,1028.18
2016-11-29T01:03:35.593Z,1028.12
2016-11-29T01:04:35.604Z,1028.16
2016-11-29T01:05:35.620Z,1028.16
2016-11-29T01:06:35.630Z,1028.23
2016-11-29T01:07:35.646Z,1028.22
2016-11-29T01:08:35.657Z,1028.2
2016-11-29T01:09:35.671Z,1028.2
2016-11-29T01:10:35.684Z,1028.16
2016-11-29T01:11:35.697Z,1028.13
2016-11-29T01:12:35.713Z,1028.1
2016-11-29T01:13:35.727Z,1028.03
2016-11-29T01:14:35.738Z,1028.01
2016-11-29T01:16:35.767Z,1028.01
2016-11-29T01:17:35.779Z,1028.03
2016-11-29T01:18:35.794Z,1027.98
2016-11-29T01:19:35.804Z,1027.99
2016-11-29T01:20:35.818Z,1027.99
2016-11-29T01:21:35.833Z,1027.97
2016-11-29T01:22:35.846Z,1027.98
2016-11-29T01:23:35.858Z,1027.96
2016-11-29T01:24:35.873Z,1027.98
2016-11-29T01:25:35.885Z,1027.97
2016-11-29T01:26:35.899Z,1027.98
2016-11-29T01:27:35.911Z,1027.95
2016-11-29T01:28:35.925Z,1027.91
2016-11-29T01:29:35.937Z,1027.93
2016-11-29T01:30:35.952Z,1027.9
2016-11-29T01:31:35.966Z,1027.88
2016-11-29T01:32:35.978Z,1027.88
2016-11-29T01:33:35.990Z,1027.85
2016-11-29T01:34:36.003Z,1027.86
2016-11-29T01:35:36.016Z,1027.84
2016-11-29T01:36:36.029Z,1027.82
2016-11-29T01:37:36.045Z,1027.87
2016-11-29T01:38:36.056Z,1027.91
2016-11-29T01:39:36.068Z,1027.9
2016-11-29T01:40:36.082Z,1027.89
2016-11-29T01:41:36.146Z,1027.91
2016-11-29T01:42:36.111Z,1027.88
2016-11-29T01:43:36.122Z,1027.9
2016-11-29T01:44:36.137Z,1027.88
2016-11-29T01:45:36.148Z,1027.87
2016-11-29T01:46:36.161Z,1027.88
2016-11-29T01:48:36.190Z,1027.87
2016-11-29T01:49:36.203Z,1027.9
2016-11-29T01:50:36.216Z,1027.94
2016-11-29T01:51:36.228Z,1027.94
2016-11-29T01:52:36.240Z,1027.97
2016-11-29T01:53:36.254Z,1028.01
2016-11-29T01:54:36.266Z,1028.02
2016-11-29T01:55:36.280Z,1028
2016-11-29T01:56:36.293Z,1028.05
2016-11-29T01:57:36.306Z,1027.99
2016-11-29T01:58:36.321Z,1028.01
2016-11-29T01:59:36.333Z,1027.96
2016-11-29T02:00:36.348Z,1028.03
2016-11-29T02:01:36.360Z,1028.02
2016-11-29T02:02:36.372Z,1028.02
2016-11-29T02:04:36.401Z,1028
2016-11-29T02:05:36.413Z,1027.96
2016-11-29T02:06:36.427Z,1027.95
2016-11-29T02:07:36.440Z,1027.93
2016-11-29T02:08:36.453Z,1027.85
2016-11-29T02:09:36.466Z,1027.89
2016-11-29T02:10:36.477Z,1027.89
2016-11-29T02:11:36.494Z,1027.88
2016-11-29T02:12:36.503Z,1027.85
2016-11-29T02:13:36.516Z,1027.85
2016-11-29T02:14:36.531Z,1027.85
2016-11-29T02:15:36.544Z,1027.83
2016-11-29T02:16:36.558Z,1027.82
2016-11-29T02:17:36.569Z,1027.87
2016-11-29T02:18:36.584Z,1027.85
2016-11-29T02:20:36.610Z,1027.81
2016-11-29T02:21:36.622Z,1027.76
2016-11-29T02:22:36.635Z,1027.78
2016-11-29T02:23:36.649Z,1027.76
2016-11-29T02:24:36.663Z,1027.8
2016-11-29T02:25:36.679Z,1027.76
2016-11-29T02:26:36.687Z,1027.74
2016-11-29T02:27:36.701Z,1027.7
2016-11-29T02:28:36.715Z,1027.72
2016-11-29T02:29:36.728Z,1027.71
2016-11-29T02:30:36.738Z,1027.66
2016-11-29T02:31:36.804Z,1027.65
2016-11-29T02:32:36.767Z,1027.67
2016-11-29T02:33:36.784Z,1027.64
2016-11-29T02:34:36.790Z,1027.66
2016-11-29T02:36:36.819Z,1027.59
2016-11-29T02:37:36.830Z,1027.62
2016-11-29T02:38:36.845Z,1027.63
2016-11-29T02:39:36.856Z,1027.64
2016-11-29T02:40:36.871Z,1027.66
2016-11-29T02:41:36.883Z,1027.66
2016-11-29T02:42:36.897Z,1027.68
2016-11-29T02:43:36.908Z,1027.7
2016-11-29T02:44:36.921Z,1027.71
2016-11-29T02:45:36.936Z,1027.68
2016-11-29T02:46:36.947Z,1027.72
2016-11-29T02:47:36.962Z,1027.68
2016-11-29T02:48:36.974Z,1027.69
2016-11-29T02:49:36.987Z,1027.71
2016-11-29T02:51:37.013Z,1027.75
2016-11-29T02:52:37.027Z,1027.78
2016-11-29T02:53:37.041Z,1027.75
2016-11-29T02:54:37.054Z,1027.78
2016-11-29T02:55:37.067Z,1027.78
2016-11-29T02:56:37.083Z,1027.78
2016-11-29T02:57:37.093Z,1027.76
2016-11-29T02:58:37.104Z,1027.69
2016-11-29T02:59:37.116Z,1027.73
2016-11-29T03:00:37.129Z,1027.73
2016-11-29T03:01:37.145Z,1027.72
2016-11-29T03:02:37.158Z,1027.76
2016-11-29T03:03:37.168Z,1027.72
2016-11-29T03:04:37.189Z,1027.66
2016-11-29T03:05:37.195Z,1027.66
2016-11-29T03:06:37.208Z,1027.65
2016-11-29T03:07:37.220Z,1027.66
2016-11-29T03:08:37.235Z,1027.66
2016-11-29T03:09:37.247Z,1027.66
2016-11-29T03:10:37.261Z,1027.68
2016-11-29T03:11:37.272Z,1027.68
2016-11-29T03:12:37.285Z,1027.65
2016-11-29T03:13:37.298Z,1027.62
2016-11-29T03:14:37.313Z,1027.62
2016-11-29T03:15:37.326Z,1027.6
2016-11-29T03:16:37.337Z,1027.66
2016-11-29T03:17:37.352Z,1027.64
2016-11-29T03:18:37.363Z,1027.6
2016-11-29T03:19:37.378Z,1027.66
2016-11-29T03:20:37.389Z,1027.65
2016-11-29T03:21:37.401Z,1027.67
2016-11-29T03:23:37.427Z,1027.68
2016-11-29T03:24:37.442Z,1027.69
2016-11-29T03:25:37.453Z,1027.68
2016-11-29T03:26:37.468Z,1027.67
2016-11-29T03:27:37.481Z,1027.64
2016-11-29T03:28:37.495Z,1027.66
2016-11-29T03:29:37.505Z,1027.69
2016-11-29T03:30:37.518Z,1027.63
2016-11-29T03:31:37.533Z,1027.64
2016-11-29T03:32:37.545Z,1027.6
2016-11-29T03:33:37.559Z,1027.6
2016-11-29T03:34:37.570Z,1027.6
2016-11-29T03:35:37.584Z,1027.63
2016-11-29T03:36:37.595Z,1027.66
2016-11-29T03:37:37.609Z,1027.64
2016-11-29T03:39:37.635Z,1027.69
2016-11-29T03:40:37.649Z,1027.7
2016-11-29T03:41:37.663Z,1027.73
2016-11-29T03:42:37.673Z,1027.7
2016-11-29T03:43:37.687Z,1027.75
2016-11-29T03:44:37.699Z,1027.74
2016-11-29T03:45:37.714Z,1027.7
2016-11-29T03:46:37.726Z,1027.71
2016-11-29T03:47:37.737Z,1027.7
2016-11-29T03:48:37.751Z,1027.7
2016-11-29T03:49:37.766Z,1027.74
2016-11-29T03:50:37.777Z,1027.69
2016-11-29T03:51:37.792Z,1027.63
2016-11-29T03:52:37.806Z,1027.65
2016-11-29T03:53:37.816Z,1027.67
2016-11-29T03:55:37.892Z,1027.66
2016-11-29T03:56:37.857Z,1027.65
2016-11-29T03:57:37.870Z,1027.68
2016-11-29T03:58:37.880Z,1027.65
2016-11-29T03:59:37.896Z,1027.7
2016-11-29T04:00:37.909Z,1027.67
2016-11-29T04:01:37.920Z,1027.71
2016-11-29T04:02:37.932Z,1027.66
2016-11-29T04:03:37.948Z,1027.66
2016-11-29T04:04:37.959Z,1027.63
2016-11-29T04:05:37.974Z,1027.63
2016-11-29T04:06:37.985Z,1027.64
2016-11-29T04:07:37.998Z,1027.69
2016-11-29T04:08:38.011Z,1027.64
2016-11-29T04:09:38.025Z,1027.66
2016-11-29T04:11:38.352Z,1027.69
2016-11-29T04:12:38.064Z,1027.72
2016-11-29T04:13:38.078Z,1027.75
2016-11-29T04:14:38.089Z,1027.75
2016-11-29T04:15:38.104Z,1027.79
2016-11-29T04:16:38.114Z,1027.83
2016-11-29T04:17:38.128Z,1027.83
2016-11-29T04:18:38.142Z,1027.83
2016-11-29T04:19:38.154Z,1027.84
2016-11-29T04:20:38.168Z,1027.85
2016-11-29T04:21:38.180Z,1027.84
2016-11-29T04:22:38.194Z,1027.86
2016-11-29T04:23:38.208Z,1027.83
2016-11-29T04:24:38.222Z,1027.87
2016-11-29T04:26:38.248Z,1027.85
2016-11-29T04:27:38.260Z,1027.78
2016-11-29T04:28:38.273Z,1027.77
2016-11-29T04:29:38.287Z,1027.77
2016-11-29T04:30:38.300Z,1027.79
2016-11-29T04:31:38.312Z,1027.79
2016-11-29T04:32:38.325Z,1027.82
2016-11-29T04:33:38.339Z,1027.78
2016-11-29T04:34:38.351Z,1027.82
2016-11-29T04:35:38.365Z,1027.81
2016-11-29T04:36:38.378Z,1027.82
2016-11-29T04:37:38.391Z,1027.85
2016-11-29T04:38:38.404Z,1027.88
2016-11-29T04:39:38.417Z,1027.87
2016-11-29T04:40:38.430Z,1027.84
2016-11-29T04:41:38.443Z,1027.89
2016-11-29T04:42:38.456Z,1027.88
2016-11-29T04:43:38.469Z,1027.86
2016-11-29T04:44:38.482Z,1027.87
2016-11-29T04:45:38.494Z,1027.9
2016-11-29T04:46:38.508Z,1027.92
2016-11-29T04:47:38.521Z,1027.92
2016-11-29T04:48:38.535Z,1027.9
2016-11-29T04:49:38.547Z,1027.97
2016-11-29T04:50:38.560Z,1027.96
2016-11-29T04:51:38.573Z,1027.95
2016-11-29T04:52:38.587Z,1027.94
2016-11-29T04:53:38.599Z,1027.99
2016-11-29T04:54:38.612Z,1027.95
2016-11-29T04:55:38.625Z,1027.96
2016-11-29T04:56:38.637Z,1027.95
2016-11-29T04:58:38.664Z,1027.92
2016-11-29T04:59:38.728Z,1027.91
2016-11-29T05:00:38.690Z,1027.92
2016-11-29T05:01:38.703Z,1027.92
2016-11-29T05:02:38.716Z,1027.93
2016-11-29T05:03:38.730Z,1027.94
2016-11-29T05:04:38.742Z,1027.96
2016-11-29T05:05:38.755Z,1027.91
2016-11-29T05:06:38.768Z,1027.89
2016-11-29T05:07:38.780Z,1027.89
2016-11-29T05:08:38.794Z,1027.92
2016-11-29T05:09:38.807Z,1027.93
2016-11-29T05:10:38.821Z,1027.91
2016-11-29T05:11:38.832Z,1027.92
2016-11-29T05:12:38.846Z,1027.93
2016-11-29T05:14:38.872Z,1027.93
2016-11-29T05:15:38.887Z,1027.97
2016-11-29T05:16:38.898Z,1027.97
2016-11-29T05:17:38.911Z,1027.98
2016-11-29T05:18:38.923Z,1028.01
2016-11-29T05:19:38.937Z,1028.03
2016-11-29T05:20:38.950Z,1028.07
2016-11-29T05:21:38.963Z,1028.01
2016-11-29T05:22:38.987Z,1028.01
2016-11-29T05:23:38.989Z,1028.04
2016-11-29T05:24:39.002Z,1028.04
2016-11-29T05:25:39.015Z,1028.04
2016-11-29T05:26:39.027Z,1028.04
2016-11-29T05:27:39.040Z,1028.06
2016-11-29T05:28:39.054Z,1028.03
2016-11-29T05:30:39.079Z,1028.02
2016-11-29T05:31:39.097Z,1028.05
2016-11-29T05:32:39.106Z,1028.02
2016-11-29T05:33:39.118Z,1028.01
2016-11-29T05:34:39.131Z,1028.03
2016-11-29T05:35:39.144Z,1027.96
2016-11-29T05:36:39.158Z,1028
2016-11-29T05:37:39.171Z,1027.95
2016-11-29T05:38:39.184Z,1027.96
2016-11-29T05:39:39.197Z,1027.96
2016-11-29T05:40:39.209Z,1027.95
2016-11-29T05:41:39.220Z,1027.95
2016-11-29T05:42:39.235Z,1027.95
2016-11-29T05:43:39.249Z,1027.93
2016-11-29T05:44:39.259Z,1027.91
2016-11-29T05:46:39.286Z,1027.95
2016-11-29T05:47:39.301Z,1027.99
2016-11-29T05:48:39.311Z,1028
2016-11-29T05:49:39.326Z,1027.89
2016-11-29T05:50:39.338Z,1027.95
2016-11-29T05:51:39.402Z,1028.01
2016-11-29T05:52:39.365Z,1027.95
2016-11-29T05:53:39.378Z,1027.98
2016-11-29T05:54:39.389Z,1027.95
2016-11-29T05:55:39.403Z,1027.95
2016-11-29T05:56:39.464Z,1027.92
2016-11-29T05:57:39.427Z,1027.92
2016-11-29T05:58:39.441Z,1027.91
2016-11-29T05:59:39.456Z,1027.92
2016-11-29T06:01:39.482Z,1027.88
2016-11-29T06:02:39.492Z,1027.88
2016-11-29T06:03:39.508Z,1027.94
2016-11-29T06:04:39.519Z,1027.88
2016-11-29T06:05:39.534Z,1027.9
2016-11-29T06:06:39.549Z,1027.91
2016-11-29T06:07:39.560Z,1027.89
2016-11-29T06:08:39.573Z,1027.94
2016-11-29T06:09:39.583Z,1027.91
2016-11-29T06:10:39.598Z,1027.96
2016-11-29T06:11:39.611Z,1027.92
2016-11-29T06:12:39.625Z,1027.95
2016-11-29T06:13:39.635Z,1027.95
2016-11-29T06:14:39.650Z,1027.97
2016-11-29T06:15:39.661Z,1027.99
2016-11-29T06:16:39.674Z,1027.98
2016-11-29T06:17:39.687Z,1027.98
2016-11-29T06:18:39.700Z,1027.99
2016-11-29T06:19:39.712Z,1027.97
2016-11-29T06:20:39.727Z,1028.01
2016-11-29T06:21:39.740Z,1027.99
2016-11-29T06:22:39.754Z,1027.97
2016-11-29T06:23:39.767Z,1027.99
2016-11-29T06:24:39.777Z,1028.02
2016-11-29T06:25:39.792Z,1028.03
2016-11-29T06:26:39.805Z,1028.04
2016-11-29T06:27:39.816Z,1028.02
2016-11-29T06:28:39.831Z,1028.03
2016-11-29T06:29:39.842Z,1027.98
2016-11-29T06:30:39.855Z,1028.02
2016-11-29T06:31:39.867Z,1028
2016-11-29T06:33:39.895Z,1028.01
2016-11-29T06:34:39.907Z,1028.01
2016-11-29T06:35:39.921Z,1028.06
2016-11-29T06:36:39.932Z,1028.05
2016-11-29T06:37:39.946Z,1028.09
2016-11-29T06:38:39.959Z,1028.03
2016-11-29T06:39:39.971Z,1028.07
2016-11-29T06:40:39.985Z,1028.04
2016-11-29T06:41:39.997Z,1028.08
2016-11-29T06:42:40.012Z,1028.08
2016-11-29T06:43:40.025Z,1028.08
2016-11-29T06:44:40.036Z,1028.06
2016-11-29T06:45:40.049Z,1028.11
2016-11-29T06:46:40.062Z,1028.08
2016-11-29T06:47:40.075Z,1028.08
2016-11-29T06:49:40.102Z,1028.09
2016-11-29T06:50:40.114Z,1028.14
2016-11-29T06:51:40.129Z,1028.14
2016-11-29T06:52:40.142Z,1028.15
2016-11-29T06:53:40.152Z,1028.18
2016-11-29T06:54:40.168Z,1028.17
2016-11-29T06:55:40.181Z,1028.19
2016-11-29T06:56:40.193Z,1028.23
2016-11-29T06:57:40.256Z,1028.21
2016-11-29T06:58:40.219Z,1028.26
2016-11-29T06:59:40.233Z,1028.24
2016-11-29T07:00:40.246Z,1028.23
2016-11-29T07:01:40.258Z,1028.31
2016-11-29T07:02:40.270Z,1028.3
2016-11-29T07:03:40.285Z,1028.32
2016-11-29T07:05:40.311Z,1028.32
2016-11-29T07:06:40.324Z,1028.34
2016-11-29T07:07:40.335Z,1028.35
2016-11-29T07:08:40.350Z,1028.34
2016-11-29T07:09:40.362Z,1028.34
2016-11-29T07:10:40.376Z,1028.36
2016-11-29T07:11:40.389Z,1028.37
2016-11-29T07:12:40.400Z,1028.38
2016-11-29T07:13:40.413Z,1028.35
2016-11-29T07:14:40.428Z,1028.33
2016-11-29T07:15:40.439Z,1028.33
2016-11-29T07:16:40.452Z,1028.33
2016-11-29T07:17:40.466Z,1028.36
2016-11-29T07:18:40.481Z,1028.34
2016-11-29T07:19:40.493Z,1028.31
2016-11-29T07:21:40.518Z,1028.29
2016-11-29T07:22:40.533Z,1028.32
2016-11-29T07:23:40.545Z,1028.31
2016-11-29T07:24:40.557Z,1028.34
2016-11-29T07:25:40.570Z,1028.26
2016-11-29T07:26:40.582Z,1028.32
2016-11-29T07:27:40.596Z,1028.29
2016-11-29T07:28:40.621Z,1028.3
2016-11-29T07:29:40.625Z,1028.31
2016-11-29T07:30:40.635Z,1028.32
2016-11-29T07:31:40.649Z,1028.31
2016-11-29T07:32:40.662Z,1028.31
2016-11-29T07:33:40.678Z,1028.36
2016-11-29T07:34:40.691Z,1028.33
2016-11-29T07:36:40.718Z,1028.36
2016-11-29T07:37:40.731Z,1028.34
2016-11-29T07:38:40.744Z,1028.37
2016-11-29T07:39:40.756Z,1028.37
2016-11-29T07:40:40.769Z,1028.38
2016-11-29T07:41:40.782Z,1028.42
2016-11-29T07:42:40.797Z,1028.4
2016-11-29T07:43:40.809Z,1028.38
2016-11-29T07:44:40.821Z,1028.41
2016-11-29T07:45:40.837Z,1028.39
2016-11-29T07:46:40.851Z,1028.39
2016-11-29T07:47:40.862Z,1028.42
2016-11-29T07:48:40.876Z,1028.42
2016-11-29T07:49:40.890Z,1028.43
2016-11-29T07:50:40.902Z,1028.46
2016-11-29T07:51:40.916Z,1028.47
2016-11-29T07:52:40.930Z,1028.48
2016-11-29T07:53:40.943Z,1028.44
2016-11-29T07:54:40.955Z,1028.42
2016-11-29T07:55:40.971Z,1028.42
2016-11-29T07:56:40.981Z,1028.52
2016-11-29T07:57:40.995Z,1028.47
2016-11-29T07:58:41.011Z,1028.41
2016-11-29T07:59:41.024Z,1028.46
2016-11-29T08:00:41.037Z,1028.51
2016-11-29T08:01:41.049Z,1028.42
2016-11-29T08:02:41.063Z,1028.46
2016-11-29T08:03:41.078Z,1028.46
2016-11-29T08:04:41.091Z,1028.47
2016-11-29T08:05:41.105Z,1028.45
2016-11-29T08:06:41.117Z,1028.44
2016-11-29T08:08:41.144Z,1028.47
2016-11-29T08:09:41.159Z,1028.49
2016-11-29T08:10:41.170Z,1028.55
2016-11-29T08:11:41.186Z,1028.51
2016-11-29T08:12:41.199Z,1028.51
2016-11-29T08:13:41.216Z,1028.56
2016-11-29T08:14:41.224Z,1028.57
2016-11-29T08:15:41.239Z,1028.56
2016-11-29T08:16:41.252Z,1028.53
2016-11-29T08:17:41.264Z,1028.55
2016-11-29T08:18:41.278Z,1028.59
2016-11-29T08:19:41.292Z,1028.56
2016-11-29T08:20:41.306Z,1028.58
2016-11-29T08:21:41.321Z,1028.55
2016-11-29T08:22:41.332Z,1028.58
2016-11-29T08:24:41.363Z,1028.58
2016-11-29T08:25:41.377Z,1028.55
2016-11-29T08:26:41.388Z,1028.55
2016-11-29T08:27:41.402Z,1028.57
2016-11-29T08:28:41.415Z,1028.57
2016-11-29T08:29:41.429Z,1028.63
2016-11-29T08:30:41.443Z,1028.61
2016-11-29T08:31:41.459Z,1028.62
2016-11-29T08:32:41.472Z,1028.6
2016-11-29T08:33:41.484Z,1028.61
2016-11-29T08:34:41.500Z,1028.61
2016-11-29T08:35:41.515Z,1028.63
2016-11-29T08:36:41.529Z,1028.61
2016-11-29T08:37:41.541Z,1028.62
2016-11-29T08:38:41.557Z,1028.63
2016-11-29T08:40:41.586Z,1028.62
2016-11-29T08:41:41.599Z,1028.69
2016-11-29T08:42:41.614Z,1028.67
2016-11-29T08:43:41.627Z,1028.65
2016-11-29T08:44:41.642Z,1028.65
2016-11-29T08:45:41.656Z,1028.64
2016-11-29T08:46:41.668Z,1028.61
2016-11-29T08:47:41.682Z,1028.63
2016-11-29T08:48:41.697Z,1028.64
2016-11-29T08:49:41.713Z,1028.63
2016-11-29T08:50:41.727Z,1028.67
2016-11-29T08:51:41.740Z,1028.66
2016-11-29T08:52:41.754Z,1028.69
2016-11-29T08:53:41.771Z,1028.68
2016-11-29T08:54:41.784Z,1028.67
2016-11-29T08:56:41.812Z,1028.67
2016-11-29T08:57:41.827Z,1028.66
2016-11-29T08:58:41.842Z,1028.65
2016-11-29T08:59:41.855Z,1028.64
2016-11-29T09:00:41.919Z,1028.65
2016-11-29T09:01:41.936Z,1028.61
2016-11-29T09:02:41.898Z,1028.66
2016-11-29T09:03:41.915Z,1028.67
2016-11-29T09:04:41.928Z,1028.67
2016-11-29T09:05:41.942Z,1028.66
2016-11-29T09:06:41.961Z,1028.67
2016-11-29T09:07:41.972Z,1028.68
2016-11-29T09:08:41.989Z,1028.64
2016-11-29T09:09:42.004Z,1028.66
2016-11-29T09:11:42.031Z,1028.66
2016-11-29T09:12:42.045Z,1028.71
2016-11-29T09:13:42.063Z,1028.64
2016-11-29T09:14:42.076Z,1028.66
2016-11-29T09:15:42.091Z,1028.67
2016-11-29T09:16:42.107Z,1028.64
2016-11-29T09:17:42.122Z,1028.66
2016-11-29T09:18:42.135Z,1028.66
2016-11-29T09:19:42.151Z,1028.66
2016-11-29T09:20:42.164Z,1028.62
2016-11-29T09:21:42.179Z,1028.59
2016-11-29T09:22:42.246Z,1028.62
2016-11-29T09:23:42.208Z,1028.67
2016-11-29T09:24:42.223Z,1028.64
2016-11-29T09:25:42.239Z,1028.62
2016-11-29T09:26:42.253Z,1028.64
2016-11-29T09:27:42.270Z,1028.63
2016-11-29T09:28:42.283Z,1028.65
2016-11-29T09:29:42.300Z,1028.62
2016-11-29T09:30:42.312Z,1028.61
2016-11-29T09:31:42.329Z,1028.59
2016-11-29T09:32:42.345Z,1028.6
2016-11-29T09:33:42.360Z,1028.67
2016-11-29T09:34:42.374Z,1028.7
2016-11-29T09:35:42.389Z,1028.69
2016-11-29T09:36:42.403Z,1028.68
2016-11-29T09:37:42.418Z,1028.76
2016-11-29T09:38:42.432Z,1028.72
2016-11-29T09:39:42.449Z,1028.77
2016-11-29T09:40:42.463Z,1028.69
2016-11-29T09:41:42.477Z,1028.66
2016-11-29T09:43:42.510Z,1028.7
2016-11-29T09:44:42.523Z,1028.7
2016-11-29T09:45:42.537Z,1028.69
2016-11-29T09:46:42.557Z,1028.67
2016-11-29T09:47:42.568Z,1028.63
2016-11-29T09:48:42.586Z,1028.69
2016-11-29T09:49:42.598Z,1028.61
2016-11-29T09:50:42.616Z,1028.69
2016-11-29T09:51:42.629Z,1028.67
2016-11-29T09:52:42.643Z,1028.62
2016-11-29T09:53:42.659Z,1028.61
2016-11-29T09:54:42.676Z,1028.58
2016-11-29T09:55:42.690Z,1028.59
2016-11-29T09:56:42.704Z,1028.56
2016-11-29T09:57:42.720Z,1028.59
2016-11-29T09:59:42.750Z,1028.56
2016-11-29T10:00:42.767Z,1028.57
2016-11-29T10:01:42.781Z,1028.56
2016-11-29T10:02:42.798Z,1028.54
2016-11-29T10:03:42.815Z,1028.59
2016-11-29T10:04:42.826Z,1028.57
2016-11-29T10:05:42.842Z,1028.57
2016-11-29T10:06:42.859Z,1028.61
2016-11-29T10:07:42.872Z,1028.54
2016-11-29T10:08:42.887Z,1028.52
2016-11-29T10:09:42.902Z,1028.52
2016-11-29T10:10:42.918Z,1028.51
2016-11-29T10:11:42.985Z,1028.5
2016-11-29T10:12:42.950Z,1028.51
2016-11-29T10:13:42.966Z,1028.51
2016-11-29T10:15:42.996Z,1028.53
2016-11-29T10:16:43.009Z,1028.55
2016-11-29T10:17:43.025Z,1028.55
2016-11-29T10:18:43.042Z,1028.55
2016-11-29T10:19:43.055Z,1028.59
2016-11-29T10:20:43.071Z,1028.57
2016-11-29T10:21:43.088Z,1028.64
2016-11-29T10:22:43.103Z,1028.62
2016-11-29T10:23:43.118Z,1028.65
2016-11-29T10:24:43.132Z,1028.62
2016-11-29T10:25:43.151Z,1028.62
2016-11-29T10:26:43.164Z,1028.56
2016-11-29T10:27:43.180Z,1028.53
2016-11-29T10:28:43.195Z,1028.55
2016-11-29T10:29:43.208Z,1028.49
2016-11-29T10:31:43.240Z,1028.5
2016-11-29T10:32:43.255Z,1028.49
2016-11-29T10:33:43.273Z,1028.54
2016-11-29T10:34:43.285Z,1028.49
2016-11-29T10:35:43.302Z,1028.51
2016-11-29T10:36:43.319Z,1028.47
2016-11-29T10:37:43.332Z,1028.49
2016-11-29T10:38:43.350Z,1028.44
2016-11-29T10:39:43.366Z,1028.42
2016-11-29T10:40:43.380Z,1028.47
2016-11-29T10:41:43.394Z,1028.49
2016-11-29T10:42:43.412Z,1028.45
2016-11-29T10:43:43.428Z,1028.46
2016-11-29T10:44:43.441Z,1028.45
2016-11-29T10:46:43.473Z,1028.42
2016-11-29T10:47:43.488Z,1028.41
2016-11-29T10:48:43.505Z,1028.4
2016-11-29T10:49:43.520Z,1028.39
2016-11-29T10:50:43.535Z,1028.42
2016-11-29T10:51:43.552Z,1028.39
2016-11-29T10:52:43.567Z,1028.42
2016-11-29T10:53:43.581Z,1028.36
2016-11-29T10:54:43.596Z,1028.34
2016-11-29T10:55:43.662Z,1028.34
2016-11-29T10:56:43.632Z,1028.31
2016-11-29T10:57:43.645Z,1028.38
2016-11-29T10:58:43.660Z,1028.34
2016-11-29T10:59:43.674Z,1028.35
2016-11-29T11:00:43.692Z,1028.36
2016-11-29T11:01:43.707Z,1028.36
2016-11-29T11:02:43.722Z,1028.33
2016-11-29T11:03:43.736Z,1028.34
2016-11-29T11:04:43.754Z,1028.29
2016-11-29T11:05:43.769Z,1028.34
2016-11-29T11:06:43.782Z,1028.37
2016-11-29T11:07:43.798Z,1028.36
2016-11-29T11:08:43.816Z,1028.34
2016-11-29T11:09:43.829Z,1028.29
2016-11-29T11:10:43.847Z,1028.28
2016-11-29T11:11:43.863Z,1028.35
2016-11-29T11:12:43.927Z,1028.34
2016-11-29T11:13:43.942Z,1028.36
2016-11-29T11:14:43.907Z,1028.32
2016-11-29T11:15:43.924Z,1028.33
2016-11-29T11:16:43.939Z,1028.33
2016-11-29T11:18:43.972Z,1028.34
2016-11-29T11:19:43.986Z,1028.36
2016-11-29T11:20:44.001Z,1028.36
2016-11-29T11:21:44.017Z,1028.29
2016-11-29T11:22:44.033Z,1028.26
2016-11-29T11:23:44.058Z,1028.24
2016-11-29T11:24:44.066Z,1028.24
2016-11-29T11:25:44.082Z,1028.14
2016-11-29T11:26:44.096Z,1028.17
2016-11-29T11:27:44.112Z,1028.21
2016-11-29T11:28:44.126Z,1028.17
2016-11-29T11:29:44.145Z,1028.2
2016-11-29T11:30:44.161Z,1028.14
2016-11-29T11:31:44.173Z,1028.17
2016-11-29T11:32:44.192Z,1028.19
2016-11-29T11:34:44.223Z,1028.18
2016-11-29T11:35:44.236Z,1028.14
2016-11-29T11:36:44.252Z,1028.19
2016-11-29T11:37:44.268Z,1028.15
2016-11-29T11:38:44.284Z,1028.21
2016-11-29T11:39:44.302Z,1028.17
2016-11-29T11:40:44.315Z,1028.17
2016-11-29T11:41:44.332Z,1028.12
2016-11-29T11:42:44.348Z,1028.1
2016-11-29T11:43:44.364Z,1028.1
2016-11-29T11:44:44.379Z,1028.08
2016-11-29T11:45:44.395Z,1028.09
2016-11-29T11:46:44.412Z,1028.08
2016-11-29T11:47:44.428Z,1028.07
2016-11-29T11:48:44.444Z,1028.02
2016-11-29T11:50:44.473Z,1028.01
2016-11-29T11:51:44.489Z,1028
2016-11-29T11:52:44.506Z,1028.02
2016-11-29T11:53:44.522Z,1027.95
2016-11-29T11:54:44.538Z,1028.05
2016-11-29T11:55:44.554Z,1028.03
2016-11-29T11:56:44.571Z,1028.04
2016-11-29T11:57:44.584Z,1028.01
2016-11-29T11:58:44.600Z,1028.07
2016-11-29T11:59:44.616Z,1028.03
2016-11-29T12:00:44.633Z,1028.08
2016-11-29T12:01:44.648Z,1028.04
2016-11-29T12:02:44.666Z,1028.06
2016-11-29T12:03:44.680Z,1028.06
2016-11-29T12:04:44.695Z,1028.07
2016-11-29T12:06:44.728Z,1028.08
2016-11-29T12:07:44.744Z,1028.04
2016-11-29T12:08:44.759Z,1028.08
2016-11-29T12:09:44.787Z,1028.1
2016-11-29T12:10:44.794Z,1028.1
2016-11-29T12:11:44.809Z,1028.04
2016-11-29T12:12:44.825Z,1028.05
2016-11-29T12:13:44.841Z,1028.02
2016-11-29T12:14:44.858Z,1028
2016-11-29T12:15:44.923Z,1028.07
2016-11-29T12:16:44.887Z,1028.03
2016-11-29T12:17:44.904Z,1028.04
2016-11-29T12:18:44.922Z,1028.07
2016-11-29T12:19:44.939Z,1028.06
2016-11-29T12:21:44.971Z,1027.97
2016-11-29T12:22:44.986Z,1028.04
2016-11-29T12:23:45.003Z,1028.01
2016-11-29T12:24:45.019Z,1028
2016-11-29T12:25:45.036Z,1028.07
2016-11-29T12:26:45.050Z,1028
2016-11-29T12:27:45.065Z,1028.04
2016-11-29T12:28:45.085Z,1028.03
2016-11-29T12:29:45.100Z,1028.03
2016-11-29T12:30:45.113Z,1027.99
2016-11-29T12:31:45.132Z,1027.96
2016-11-29T12:32:45.147Z,1028.04
2016-11-29T12:33:45.163Z,1027.97
2016-11-29T12:34:45.181Z,1028.02
2016-11-29T12:35:45.197Z,1027.97
2016-11-29T12:36:45.213Z,1027.99
2016-11-29T12:37:45.228Z,1028.04
2016-11-29T12:38:45.243Z,1028.01
2016-11-29T12:39:45.262Z,1027.97
2016-11-29T12:40:45.277Z,1027.98
2016-11-29T12:41:45.293Z,1027.97
2016-11-29T12:42:45.307Z,1027.97
2016-11-29T12:43:45.326Z,1027.99
2016-11-29T12:44:45.339Z,1027.98
2016-11-29T12:45:45.355Z,1027.97
2016-11-29T12:46:45.374Z,1028
2016-11-29T12:47:45.390Z,1027.95
2016-11-29T12:48:45.416Z,1027.96